Time;durP1;ratioP1;P1;durP2;ratioP2;P2;SDS_P1;SDS_P2;PMS_P1;PMS_P2;Temp;Humidity;BMP_temperature;BMP_pressure;BME280_temperature;BME280_humidity;BME280_pressure;Samples;Min_cycle;Max_cycle;Signal;HPM_P1;HPM_P2
2021/10/13 00:02:09;;;;;;;2.03;0.80;;;;;;;5.58;63.76;100646.19;5106498;28;20047;-70
2021/10/13 00:04:34;;;;;;;1.90;0.90;;;;;;;5.58;63.47;100638.47;5088453;28;20012;-71
2021/10/13 00:07:00;;;;;;;2.67;0.98;;;;;;;5.61;63.36;100632.50;5106822;28;20061;-71
2021/10/13 00:09:25;;;;;;;1.63;1.00;;;;;;;5.68;62.98;100644.66;5106794;28;20031;-71
2021/10/13 00:11:51;;;;;;;2.05;1.00;;;;;;;5.69;63.03;100645.50;5106722;28;20030;-71
2021/10/13 00:14:16;;;;;;;1.20;0.80;;;;;;;5.73;62.83;100643.84;5106567;28;20024;-71
2021/10/13 00:16:51;;;;;;;1.60;0.80;;;;;;;5.69;62.85;100640.34;5106816;28;20032;-71
2021/10/13 00:19:16;;;;;;;1.65;0.88;;;;;;;5.69;62.78;100642.91;5106532;28;20073;-71
2021/10/13 00:21:41;;;;;;;1.33;0.88;;;;;;;5.69;62.86;100635.19;5106189;28;20048;-71
2021/10/13 00:24:07;;;;;;;2.15;0.80;;;;;;;5.70;62.70;100642.94;5106423;28;20020;-71
2021/10/13 00:26:33;;;;;;;1.40;0.93;;;;;;;5.70;62.78;100650.66;5106474;28;20058;-70
2021/10/13 00:28:58;;;;;;;2.03;0.90;;;;;;;5.71;62.64;100651.53;5106154;28;20049;-71
2021/10/13 00:31:23;;;;;;;2.92;0.90;;;;;;;5.71;62.75;100641.25;5106160;28;20028;-71
2021/10/13 00:33:48;;;;;;;1.75;1.08;;;;;;;5.66;62.67;100630.88;5106053;28;20020;-71
2021/10/13 00:36:14;;;;;;;2.80;1.40;;;;;;;5.69;62.53;100640.34;5106238;28;20024;-71
2021/10/13 00:38:39;;;;;;;3.30;0.95;;;;;;;5.75;62.74;100649.88;5106191;28;20031;-71
2021/10/13 00:41:04;;;;;;;1.90;1.13;;;;;;;5.76;62.62;100655.06;5106202;28;20027;-71
2021/10/13 00:43:30;;;;;;;3.13;1.33;;;;;;;5.78;62.80;100660.25;5106166;28;20024;-70
2021/10/13 00:45:55;;;;;;;4.55;2.10;;;;;;;5.77;62.80;100656.78;5105954;28;20511;-71
2021/10/13 00:48:20;;;;;;;3.22;1.83;;;;;;;5.73;63.03;100661.88;5105660;28;20102;-70
2021/10/13 00:50:46;;;;;;;4.85;1.80;;;;;;;5.68;63.45;100666.94;5105729;28;20032;-71
2021/10/13 00:53:11;;;;;;;2.35;1.33;;;;;;;5.56;64.20;100655.59;5105578;28;20046;-71
2021/10/13 00:55:38;;;;;;;3.40;1.45;;;;;;;5.44;64.25;100653.72;5105777;28;20054;-70
2021/10/13 00:58:03;;;;;;;2.53;1.17;;;;;;;5.33;64.96;100647.50;5105586;28;20020;-70
2021/10/13 01:00:28;;;;;;;1.83;1.20;;;;;;;5.24;65.29;100643.03;5105514;28;20016;-70
2021/10/13 01:03:18;;;;;;;2.80;1.45;;;;;;;5.18;65.32;100651.53;5105527;28;20160;-69
2021/10/13 01:05:46;;;;;;;2.30;1.20;;;;;;;5.16;64.89;100655.78;5105509;28;20044;-70
2021/10/13 01:08:27;;;;;;;3.45;2.40;;;;;;;5.11;64.91;100662.56;5105440;28;20050;-70
2021/10/13 01:11:41;;;;;;;2.67;1.27;;;;;;;5.00;65.02;100653.78;5105596;28;20027;-70
2021/10/13 01:14:16;;;;;;;2.80;1.40;;;;;;;4.89;65.37;100653.59;5062374;28;20028;-71
2021/10/13 01:16:51;;;;;;;2.78;1.20;;;;;;;4.82;65.19;100657.75;5045632;28;20043;-71
2021/10/13 01:19:40;;;;;;;3.33;1.30;;;;;;;4.78;65.16;100664.53;5062071;28;20029;-71
2021/10/13 01:22:27;;;;;;;3.70;1.35;;;;;;;4.73;65.31;100661.00;5062106;28;20052;-70
2021/10/13 01:25:02;;;;;;;1.40;0.88;;;;;;;4.72;65.47;100659.25;5045534;28;20045;-71
2021/10/13 01:27:52;;;;;;;4.32;1.15;;;;;;;4.76;65.63;100649.91;5062146;28;20120;-70
2021/10/13 01:30:19;;;;;;;2.40;1.00;;;;;;;4.78;65.72;100655.94;5062036;28;20025;-70
2021/10/13 01:32:52;;;;;;;1.83;1.00;;;;;;;4.81;65.49;100656.88;5062006;28;20043;-70
2021/10/13 01:35:19;;;;;;;2.55;0.95;;;;;;;4.82;65.32;100665.47;5061763;28;20052;-71
2021/10/13 01:37:54;;;;;;;2.28;1.02;;;;;;;4.78;65.36;100659.38;5061886;28;20417;-71
2021/10/13 01:40:25;;;;;;;2.55;1.10;;;;;;;4.77;65.25;100654.22;5061882;28;20036;-70
2021/10/13 01:42:52;;;;;;;1.25;0.77;;;;;;;4.74;65.41;100655.03;5061880;28;20048;-70
2021/10/13 01:45:19;;;;;;;1.42;0.90;;;;;;;4.75;65.46;100646.47;5061800;28;20128;-70
2021/10/13 01:47:47;;;;;;;2.42;0.90;;;;;;;4.73;65.78;100644.72;5080584;28;20044;-70
2021/10/13 01:50:14;;;;;;;4.70;0.95;;;;;;;4.80;66.09;100654.25;5104544;28;20096;-70
2021/10/13 01:52:41;;;;;;;2.28;1.25;;;;;;;4.83;65.86;100647.47;5086352;28;20063;-71
2021/10/13 01:55:08;;;;;;;5.05;1.40;;;;;;;4.87;65.82;100658.72;5104679;28;20031;-71
2021/10/13 01:57:35;;;;;;;2.58;1.13;;;;;;;4.83;65.80;100651.75;5104687;28;20077;-71
2021/10/13 02:00:05;;;;;;;2.53;1.08;;;;;;;4.85;65.68;100655.22;5104476;28;20025;-70
2021/10/13 02:02:31;;;;;;;2.20;1.23;;;;;;;4.82;65.65;100656.00;5085978;28;20057;-71
2021/10/13 02:04:57;;;;;;;2.13;1.17;;;;;;;4.79;65.59;100650.81;5104221;28;20549;-69
2021/10/13 02:07:25;;;;;;;2.70;1.52;;;;;;;4.77;65.55;100656.78;5104369;28;20202;-69
2021/10/13 02:09:52;;;;;;;2.53;1.10;;;;;;;4.75;65.71;100651.59;5104099;28;20046;-69
2021/10/13 02:12:20;;;;;;;5.10;1.60;;;;;;;4.73;65.81;100649.84;5104361;28;20041;-70
2021/10/13 02:14:46;;;;;;;3.85;0.90;;;;;;;4.73;65.71;100655.00;5085913;28;20070;-71
2021/10/13 02:17:14;;;;;;;1.67;1.05;;;;;;;4.68;65.74;100653.19;5085697;28;20349;-70
2021/10/13 02:19:41;;;;;;;4.63;1.20;;;;;;;4.69;65.70;100654.06;5103958;28;20016;-70
2021/10/13 02:22:08;;;;;;;1.35;0.93;;;;;;;4.69;65.86;100659.19;5103915;28;20112;-69
2021/10/13 02:24:43;;;;;;;3.25;0.90;;;;;;;4.69;65.84;100651.50;5103920;28;20028;-70
2021/10/13 02:27:13;;;;;;;1.85;0.80;;;;;;;4.68;65.87;100658.31;5104045;28;20078;-69
2021/10/13 02:29:38;;;;;;;1.98;0.98;;;;;;;4.71;65.95;100658.38;5104107;28;20020;-70
2021/10/13 02:32:06;;;;;;;1.25;0.75;;;;;;;4.81;65.92;100649.16;5103711;28;20030;-70
2021/10/13 02:34:31;;;;;;;3.75;1.13;;;;;;;4.89;65.74;100649.28;5103588;28;20557;-69
2021/10/13 02:36:56;;;;;;;2.42;1.00;;;;;;;4.96;65.55;100652.84;5103860;28;20031;-70
2021/10/13 02:39:22;;;;;;;3.47;0.95;;;;;;;5.04;65.45;100645.28;5103869;28;20016;-69
2021/10/13 02:41:47;;;;;;;3.75;0.95;;;;;;;5.13;65.21;100648.00;5103803;28;20495;-69
2021/10/13 02:44:12;;;;;;;2.70;0.98;;;;;;;5.16;65.14;100653.22;5103836;28;20020;-69
2021/10/13 02:47:01;;;;;;;1.02;0.63;;;;;;;5.23;65.19;100661.91;5103730;28;20083;-69
2021/10/13 02:49:44;;;;;;;4.47;1.60;;;;;;;5.29;65.00;100666.28;5103026;28;20028;-69
2021/10/13 02:52:22;;;;;;;3.13;0.90;;;;;;;5.32;64.87;100679.22;5103435;28;20024;-69
2021/10/13 02:55:02;;;;;;;3.80;1.00;;;;;;;5.37;65.06;100680.19;5103852;28;20490;-70
2021/10/13 02:57:33;;;;;;;3.25;0.98;;;;;;;5.37;65.08;100687.06;5103456;28;20032;-69
2021/10/13 03:00:04;;;;;;;3.53;0.97;;;;;;;5.41;65.23;100689.72;5103742;28;20016;-70
2021/10/13 03:02:36;;;;;;;2.65;1.20;;;;;;;5.40;65.29;100698.25;5085247;28;20031;-69
2021/10/13 03:05:02;;;;;;;3.83;1.88;;;;;;;5.38;65.57;100693.94;5103509;28;20028;-69
2021/10/13 03:07:34;;;;;;;3.38;1.17;;;;;;;5.46;65.41;100693.22;5103346;28;20347;-70
2021/10/13 03:10:03;;;;;;;2.85;1.00;;;;;;;5.47;65.44;100696.66;5103509;28;20020;-69
2021/10/13 03:12:35;;;;;;;2.20;1.10;;;;;;;5.49;65.49;100697.56;5103573;28;20436;-69
2021/10/13 03:15:01;;;;;;;3.03;1.05;;;;;;;5.48;65.41;100692.38;5103279;28;20073;-70
2021/10/13 03:17:27;;;;;;;3.03;1.40;;;;;;;5.48;65.38;100688.09;5103212;28;20032;-69
2021/10/13 03:19:55;;;;;;;3.35;0.80;;;;;;;5.52;65.36;100695.03;5103200;28;20428;-69
2021/10/13 03:22:22;;;;;;;3.05;1.20;;;;;;;5.58;65.20;100691.69;5103301;28;20099;-69
2021/10/13 03:24:47;;;;;;;2.92;0.90;;;;;;;5.65;65.10;100683.25;5103428;28;20080;-70
2021/10/13 03:27:13;;;;;;;4.05;1.05;;;;;;;5.68;65.08;100680.72;5103208;28;20020;-69
2021/10/13 03:29:40;;;;;;;1.92;0.90;;;;;;;5.70;65.11;100684.16;5102986;28;20028;-69
2021/10/13 03:32:05;;;;;;;3.17;1.05;;;;;;;5.67;65.15;100678.97;5102994;28;20024;-69
2021/10/13 03:34:31;;;;;;;3.92;1.15;;;;;;;5.73;64.98;100682.47;5102851;28;20032;-69
2021/10/13 03:36:56;;;;;;;4.15;1.10;;;;;;;5.75;65.00;100680.81;5103304;28;20027;-69
2021/10/13 03:39:21;;;;;;;2.00;1.00;;;;;;;5.74;64.89;100673.91;5103125;28;20020;-69
2021/10/13 03:41:46;;;;;;;2.90;0.80;;;;;;;5.75;64.84;100668.78;5103322;28;20020;-69
2021/10/13 03:44:12;;;;;;;1.88;0.90;;;;;;;5.80;64.72;100672.28;5103352;28;20088;-69
2021/10/13 03:46:37;;;;;;;3.22;1.15;;;;;;;5.79;64.65;100661.97;5103044;28;20466;-69
2021/10/13 03:49:03;;;;;;;2.83;1.00;;;;;;;5.83;64.89;100674.91;5102949;28;20024;-71
2021/10/13 03:51:29;;;;;;;2.60;1.50;;;;;;;5.77;65.10;100668.78;5118790;28;20015;-69
2021/10/13 03:53:55;;;;;;;1.67;1.27;;;;;;;5.69;65.05;100674.72;5103140;28;20487;-69
2021/10/13 03:56:20;;;;;;;2.25;1.00;;;;;;;5.66;65.32;100674.66;5103080;28;20083;-69
2021/10/13 03:58:45;;;;;;;2.55;0.93;;;;;;;5.68;65.42;100680.72;5084727;28;20256;-70
2021/10/13 04:01:12;;;;;;;2.40;1.30;;;;;;;5.68;65.53;100678.13;5103243;28;20119;-70
2021/10/13 04:03:39;;;;;;;5.70;1.58;;;;;;;5.66;65.62;100682.38;5106612;28;20020;-70
2021/10/13 04:06:04;;;;;;;2.17;1.10;;;;;;;5.60;65.59;100673.69;5106776;28;20031;-69
2021/10/13 04:08:30;;;;;;;2.58;1.30;;;;;;;5.65;65.48;100684.94;5106474;28;20024;-70
2021/10/13 04:10:55;;;;;;;4.30;1.50;;;;;;;5.60;65.59;100682.28;5106639;28;20046;-69
2021/10/13 04:13:20;;;;;;;2.97;1.40;;;;;;;5.51;65.72;100677.84;5106690;28;20101;-70
2021/10/13 04:15:46;;;;;;;2.80;1.75;;;;;;;5.42;65.90;100687.97;5106428;28;20087;-69
2021/10/13 04:18:11;;;;;;;2.20;1.10;;;;;;;5.36;65.73;100683.59;5106095;28;20024;-69
2021/10/13 04:20:37;;;;;;;4.18;1.35;;;;;;;5.25;65.95;100673.13;5106287;28;20429;-69
2021/10/13 04:23:02;;;;;;;2.42;1.23;;;;;;;5.30;65.78;100688.66;5106333;28;20059;-69
2021/10/13 04:25:28;;;;;;;2.40;1.00;;;;;;;5.30;65.85;100688.66;5105990;28;20119;-69
2021/10/13 04:27:53;;;;;;;4.03;1.70;;;;;;;5.30;65.66;100691.22;5105939;28;20115;-69
2021/10/13 04:30:18;;;;;;;3.92;1.98;;;;;;;5.32;65.59;100690.41;5121489;28;20099;-67
2021/10/13 04:32:45;;;;;;;1.90;1.00;;;;;;;5.32;65.66;100685.25;5105849;28;20063;-67
2021/10/13 04:35:11;;;;;;;1.50;1.05;;;;;;;5.34;65.74;100685.28;5105917;28;20024;-69
2021/10/13 04:37:37;;;;;;;2.15;1.10;;;;;;;5.30;65.66;100683.50;5105876;28;20099;-68
2021/10/13 04:40:07;;;;;;;2.90;1.33;;;;;;;5.32;65.64;100686.94;5105895;28;20024;-69
2021/10/13 04:42:33;;;;;;;4.78;1.88;;;;;;;5.38;65.43;100696.50;5087630;28;20027;-68
2021/10/13 04:44:58;;;;;;;1.20;1.00;;;;;;;5.35;65.53;100692.19;5105877;28;20020;-68
2021/10/13 04:47:23;;;;;;;3.47;1.45;;;;;;;5.33;65.68;100691.28;5106156;28;20024;-68
2021/10/13 04:49:49;;;;;;;2.05;1.02;;;;;;;5.32;65.64;100689.53;5105732;28;20475;-69
2021/10/13 04:52:15;;;;;;;2.15;1.02;;;;;;;5.38;65.77;100696.50;5105930;28;20529;-68
2021/10/13 04:54:40;;;;;;;2.22;1.20;;;;;;;5.37;65.66;100694.78;5105828;28;20020;-70
2021/10/13 04:57:06;;;;;;;2.42;1.10;;;;;;;5.37;65.78;100690.47;5105654;28;20098;-71
2021/10/13 04:59:31;;;;;;;2.00;1.02;;;;;;;5.38;65.78;100692.22;5105730;28;20027;-69
2021/10/13 05:01:56;;;;;;;3.33;1.27;;;;;;;5.46;65.76;100700.09;5105634;28;20035;-69
2021/10/13 05:04:22;;;;;;;2.08;1.10;;;;;;;5.49;65.66;100694.09;5105556;28;20024;-71
2021/10/13 05:06:47;;;;;;;2.85;0.98;;;;;;;5.51;65.62;100698.44;5105852;28;20043;-73
2021/10/13 05:09:14;;;;;;;2.03;1.10;;;;;;;5.54;65.55;100695.91;5121258;28;20456;-74
2021/10/13 05:11:40;;;;;;;4.97;1.55;;;;;;;5.48;65.73;100687.22;5087086;28;20016;-73
2021/10/13 05:14:05;;;;;;;2.58;1.17;;;;;;;5.48;65.63;100685.50;5104611;28;20377;-73
2021/10/13 05:16:30;;;;;;;2.20;1.13;;;;;;;5.50;65.69;100696.72;5105600;28;20032;-72
2021/10/13 05:18:56;;;;;;;3.70;1.33;;;;;;;5.52;65.77;100704.47;5105158;28;20012;-70
2021/10/13 05:21:21;;;;;;;3.10;1.27;;;;;;;5.49;65.87;100700.13;5104974;28;20364;-71
2021/10/13 05:23:46;;;;;;;2.53;1.13;;;;;;;5.47;65.80;100696.66;5120858;28;20028;-71
2021/10/13 05:26:12;;;;;;;5.80;1.63;;;;;;;5.42;65.82;100693.13;5105171;28;20012;-71
2021/10/13 05:28:37;;;;;;;3.05;1.33;;;;;;;5.37;65.92;100698.19;5105084;28;20020;-71
2021/10/13 05:31:02;;;;;;;2.08;1.10;;;;;;;5.32;66.13;100697.25;5086977;28;20046;-71
2021/10/13 05:33:28;;;;;;;2.47;1.05;;;;;;;5.28;65.82;100698.91;5104858;28;20032;-69
2021/10/13 05:35:53;;;;;;;1.35;0.82;;;;;;;5.27;65.67;100689.44;5104809;28;20059;-69
2021/10/13 05:38:19;;;;;;;1.55;1.10;;;;;;;5.24;65.51;100686.81;5104744;28;20028;-73
2021/10/13 05:40:44;;;;;;;1.27;0.90;;;;;;;5.26;65.35;100695.44;5104855;28;20024;-70
2021/10/13 05:43:09;;;;;;;2.13;1.33;;;;;;;5.26;65.23;100692.88;5104942;28;20102;-73
2021/10/13 05:45:35;;;;;;;5.55;1.17;;;;;;;5.31;65.04;100695.50;5104870;28;20498;-72
2021/10/13 05:48:00;;;;;;;1.30;1.00;;;;;;;5.32;64.40;100698.13;5104905;28;20024;-72
2021/10/13 05:50:25;;;;;;;1.75;0.70;;;;;;;5.38;63.62;100699.97;5104553;28;20069;-72
2021/10/13 05:52:51;;;;;;;3.05;0.90;;;;;;;5.40;63.56;100705.97;5086637;28;20031;-74
2021/10/13 05:55:16;;;;;;;0.82;0.63;;;;;;;5.43;63.83;100705.19;5104729;28;20024;-73
2021/10/13 05:57:42;;;;;;;1.63;0.80;;;;;;;5.46;63.84;100703.50;5103898;28;20239;-72
2021/10/13 06:00:08;;;;;;;0.95;0.70;;;;;;;5.53;63.47;100706.19;5104799;28;20016;-70
2021/10/13 06:02:34;;;;;;;2.47;0.80;;;;;;;5.45;63.48;100690.59;5104562;28;20429;-71
2021/10/13 06:05:00;;;;;;;2.03;1.00;;;;;;;5.51;63.32;100698.44;5085982;28;20016;-72
2021/10/13 06:07:25;;;;;;;2.72;0.77;;;;;;;5.59;62.96;100706.31;5104447;28;20016;-72
2021/10/13 06:09:50;;;;;;;1.38;0.80;;;;;;;5.58;63.10;100692.56;5104205;28;20027;-71
2021/10/13 06:12:16;;;;;;;2.30;1.00;;;;;;;5.67;63.27;100699.56;5104277;28;20105;-72
2021/10/13 06:14:41;;;;;;;1.92;0.90;;;;;;;5.67;63.29;100693.56;5086280;28;20487;-72
2021/10/13 06:17:07;;;;;;;1.67;1.00;;;;;;;5.75;63.43;100701.41;5104394;28;20450;-72
2021/10/13 06:19:32;;;;;;;8.45;1.27;;;;;;;5.73;63.59;100701.41;5104000;28;20103;-72
2021/10/13 06:21:58;;;;;;;3.25;0.93;;;;;;;5.70;63.39;100709.06;5104138;28;20075;-72
2021/10/13 06:24:23;;;;;;;6.13;1.40;;;;;;;5.70;63.56;100704.75;5104266;28;20259;-72
2021/10/13 06:26:48;;;;;;;4.88;2.13;;;;;;;5.75;63.25;100702.25;5104193;28;20464;-72
2021/10/13 06:29:14;;;;;;;3.20;0.95;;;;;;;5.84;63.58;100706.72;5104091;28;20111;-72
2021/10/13 06:31:39;;;;;;;3.83;1.13;;;;;;;5.92;63.27;100712.88;5119786;28;20020;-72
2021/10/13 06:34:05;;;;;;;4.05;1.33;;;;;;;6.09;63.26;100712.28;5085724;28;20519;-72
2021/10/13 06:36:30;;;;;;;3.63;1.15;;;;;;;6.55;63.38;100712.06;5104255;28;20050;-70
2021/10/13 06:38:56;;;;;;;3.05;1.00;;;;;;;7.10;62.28;100704.97;5103668;28;20044;-70
2021/10/13 06:41:27;;;;;;;2.25;1.23;;;;;;;7.27;61.70;100699.97;5103931;28;20016;-71
2021/10/13 06:43:53;;;;;;;2.45;0.98;;;;;;;7.67;61.94;100702.06;5085709;28;20490;-71
2021/10/13 06:46:18;;;;;;;2.78;1.05;;;;;;;8.01;61.56;100713.50;5103783;28;20087;-71
2021/10/13 06:48:43;;;;;;;5.15;1.20;;;;;;;8.13;61.14;100713.59;5103409;28;20028;-70
2021/10/13 06:51:09;;;;;;;5.35;1.55;;;;;;;8.19;61.08;100723.13;5085692;28;20027;-71
2021/10/13 06:53:34;;;;;;;2.50;1.20;;;;;;;8.31;60.86;100720.59;5103762;28;20027;-70
2021/10/13 06:56:00;;;;;;;4.43;1.33;;;;;;;8.28;60.58;100717.13;5103736;28;20020;-70
2021/10/13 06:58:25;;;;;;;1.23;0.90;;;;;;;8.19;59.99;100726.56;5103799;28;20036;-71
2021/10/13 07:00:51;;;;;;;1.48;1.02;;;;;;;8.00;60.13;100724.72;5103798;28;20024;-72
2021/10/13 07:03:19;;;;;;;4.57;1.58;;;;;;;7.92;60.50;100728.09;5103633;28;20156;-72
2021/10/13 07:05:44;;;;;;;4.70;1.17;;;;;;;7.90;60.51;100734.09;5103226;28;20031;-71
2021/10/13 07:08:09;;;;;;;3.55;1.17;;;;;;;7.77;60.15;100730.56;5103457;28;20028;-70
2021/10/13 07:10:35;;;;;;;5.28;1.17;;;;;;;7.65;59.95;100729.59;5103520;28;20423;-71
2021/10/13 07:13:00;;;;;;;4.80;1.08;;;;;;;7.57;59.98;100746.75;5085327;28;20042;-73
2021/10/13 07:15:28;;;;;;;3.78;1.35;;;;;;;7.50;60.52;100744.97;5103272;28;20020;-72
2021/10/13 07:17:53;;;;;;;5.45;1.52;;;;;;;7.49;60.67;100744.06;5103381;28;20032;-72
2021/10/13 07:20:19;;;;;;;3.63;1.77;;;;;;;7.52;60.89;100740.69;5103139;28;20032;-73
2021/10/13 07:22:45;;;;;;;2.35;1.17;;;;;;;7.60;60.75;100746.78;5103381;28;20059;-73
2021/10/13 07:25:13;;;;;;;5.55;1.48;;;;;;;7.67;60.99;100747.69;5119050;28;20027;-73
2021/10/13 07:27:38;;;;;;;2.75;1.48;;;;;;;7.79;61.19;100747.81;5103426;28;20028;-72
2021/10/13 07:30:07;;;;;;;3.28;1.33;;;;;;;7.91;61.37;100747.03;5103441;28;20035;-72
2021/10/13 07:32:34;;;;;;;7.78;1.60;;;;;;;8.04;61.22;100744.56;5103552;28;20031;-72
2021/10/13 07:35:00;;;;;;;7.70;1.70;;;;;;;8.21;61.10;100749.84;5103104;28;20257;-74
2021/10/13 07:37:27;;;;;;;2.55;1.00;;;;;;;8.28;61.09;100750.75;5106090;28;20020;-73
2021/10/13 07:39:54;;;;;;;4.20;1.40;;;;;;;8.40;60.99;100750.81;5122966;28;20394;-72
2021/10/13 07:42:19;;;;;;;4.63;2.08;;;;;;;8.38;60.62;100744.78;5089043;28;20024;-73
2021/10/13 07:44:46;;;;;;;5.13;1.67;;;;;;;8.35;60.59;100747.38;5107510;28;20039;-73
2021/10/13 07:47:14;;;;;;;6.20;1.10;;;;;;;8.29;60.66;100749.91;5107391;28;20045;-72
2021/10/13 07:49:41;;;;;;;6.18;1.45;;;;;;;8.25;60.50;100750.72;5106702;28;20034;-73
2021/10/13 07:52:07;;;;;;;5.28;1.55;;;;;;;8.18;60.06;100748.09;5088677;28;20256;-73
2021/10/13 07:54:32;;;;;;;3.08;1.13;;;;;;;8.07;60.00;100754.91;5107228;28;20023;-73
2021/10/13 07:57:00;;;;;;;7.30;1.15;;;;;;;7.92;60.60;100748.78;5107231;28;20020;-73
2021/10/13 07:59:25;;;;;;;3.05;1.15;;;;;;;7.81;61.05;100742.66;5106596;28;20036;-74
2021/10/13 08:01:51;;;;;;;4.47;1.80;;;;;;;7.76;61.36;100747.81;5106761;28;20068;-71
2021/10/13 08:04:16;;;;;;;7.43;2.58;;;;;;;7.78;61.83;100763.31;5088134;28;20035;-73
2021/10/13 08:06:42;;;;;;;3.70;1.40;;;;;;;7.84;61.75;100760.78;5106724;28;20054;-73
2021/10/13 08:09:07;;;;;;;3.03;1.50;;;;;;;7.80;61.65;100762.47;5106370;28;20020;-73
2021/10/13 08:11:33;;;;;;;4.47;1.40;;;;;;;7.78;61.56;100768.50;5106661;28;20484;-72
2021/10/13 08:14:01;;;;;;;6.75;1.60;;;;;;;7.70;61.94;100770.97;5106967;28;20080;-71
2021/10/13 08:16:26;;;;;;;12.82;2.28;;;;;;;7.79;62.58;100768.50;5106603;28;20327;-72
2021/10/13 08:18:52;;;;;;;5.05;1.58;;;;;;;7.96;62.54;100762.59;5106320;28;21116;-72
2021/10/13 08:21:17;;;;;;;10.80;1.48;;;;;;;8.03;62.42;100764.41;5106303;28;20042;-72
2021/10/13 08:23:42;;;;;;;10.02;2.00;;;;;;;8.18;62.44;100766.22;5106509;28;20036;-72
2021/10/13 08:26:08;;;;;;;9.98;2.03;;;;;;;8.61;62.68;100769.97;5106288;28;20031;-71
2021/10/13 08:28:33;;;;;;;7.55;1.80;;;;;;;9.01;61.79;100768.44;5106045;28;20083;-72
2021/10/13 08:30:59;;;;;;;8.82;1.40;;;;;;;9.25;60.87;100770.22;5106343;28;20024;-72
2021/10/13 08:33:27;;;;;;;2.95;1.20;;;;;;;9.46;60.68;100765.09;5121729;28;20476;-72
2021/10/13 08:35:52;;;;;;;4.80;1.75;;;;;;;9.74;60.64;100772.91;5106162;28;20028;-72
2021/10/13 08:38:17;;;;;;;5.97;2.00;;;;;;;10.32;61.01;100768.56;5106067;28;20042;-72
2021/10/13 08:40:43;;;;;;;17.50;4.25;;;;;;;11.73;59.68;100760.19;5087794;28;20103;-72
2021/10/13 08:43:09;;;;;;;7.95;1.92;;;;;;;12.94;56.44;100759.91;5106066;28;20131;-72
2021/10/13 08:45:37;;;;;;;10.80;2.08;;;;;;;13.67;55.20;100760.66;5105709;28;20020;-73
2021/10/13 08:48:04;;;;;;;8.38;2.35;;;;;;;14.04;52.93;100761.81;5104466;28;20020;-72
2021/10/13 08:50:32;;;;;;;4.25;1.48;;;;;;;13.71;51.97;100759.72;5105572;28;20024;-72
2021/10/13 08:53:09;;;;;;;6.85;1.85;;;;;;;13.17;51.57;100761.34;5105804;28;20031;-73
2021/10/13 08:55:36;;;;;;;6.90;2.08;;;;;;;12.75;52.59;100760.97;5105707;28;20034;-72
2021/10/13 08:58:15;;;;;;;7.65;1.73;;;;;;;12.46;52.93;100766.53;5105555;28;20027;-72
2021/10/13 09:00:46;;;;;;;8.88;2.47;;;;;;;12.14;52.65;100772.03;5105603;28;20024;-72
2021/10/13 09:03:32;;;;;;;5.83;1.73;;;;;;;11.80;53.19;100768.81;5105354;28;20130;-72
2021/10/13 09:06:11;;;;;;;5.82;1.73;;;;;;;11.60;53.82;100759.41;5105238;28;20083;-72
2021/10/13 09:09:02;;;;;;;6.47;1.52;;;;;;;11.35;53.00;100757.84;5105388;28;20087;-72
2021/10/13 09:11:32;;;;;;;4.30;1.23;;;;;;;11.08;53.56;100759.72;5105571;28;20024;-72
2021/10/13 09:14:25;;;;;;;3.63;0.98;;;;;;;11.15;54.06;100766.59;5105214;28;20024;-72
2021/10/13 09:17:03;;;;;;;2.33;1.10;;;;;;;11.20;53.36;100773.53;5085584;28;20036;-72
2021/10/13 09:19:36;;;;;;;4.72;1.50;;;;;;;11.50;53.47;100766.44;5104986;28;20081;-72
2021/10/13 09:22:05;;;;;;;4.00;1.30;;;;;;;11.88;53.29;100769.63;5105176;28;20150;-71
2021/10/13 09:24:33;;;;;;;6.95;1.85;;;;;;;11.94;52.68;100764.38;5105219;28;20024;-71
2021/10/13 09:27:26;;;;;;;6.85;1.30;;;;;;;12.01;52.16;100768.63;5105303;28;20031;-71
2021/10/13 09:30:00;;;;;;;2.33;1.50;;;;;;;11.89;51.24;100773.94;5120867;28;20092;-72
2021/10/13 09:32:26;;;;;;;6.03;1.55;;;;;;;11.86;52.53;100763.56;5105048;28;20051;-71
2021/10/13 09:35:00;;;;;;;10.30;2.22;;;;;;;11.82;52.16;100777.47;5104822;28;20020;-72
2021/10/13 09:37:49;;;;;;;12.35;1.55;;;;;;;11.81;52.67;100775.72;5104330;28;20020;-72
2021/10/13 09:40:32;;;;;;;6.03;1.95;;;;;;;12.12;52.52;100768.56;5104350;28;20028;-71
2021/10/13 09:43:01;;;;;;;9.23;1.60;;;;;;;12.65;52.14;100772.41;5104704;28;20016;-70
2021/10/13 09:45:28;;;;;;;12.30;2.22;;;;;;;13.95;50.75;100771.50;5104558;28;20084;-71
2021/10/13 09:48:07;;;;;;;6.68;2.13;;;;;;;15.71;47.83;100768.88;5104352;28;20024;-70
2021/10/13 09:50:45;;;;;;;7.18;1.52;;;;;;;17.65;43.25;100756.53;5104387;28;20031;-70
2021/10/13 09:53:15;;;;;;;6.38;1.80;;;;;;;18.19;40.82;100760.94;5104402;28;20050;-71
2021/10/13 09:55:41;;;;;;;5.95;1.40;;;;;;;18.22;39.65;100763.47;5104557;28;20028;-70
2021/10/13 09:58:21;;;;;;;7.68;1.45;;;;;;;18.22;37.91;100766.09;5104411;28;20055;-70
2021/10/13 10:00:46;;;;;;;4.95;1.27;;;;;;;18.13;38.66;100766.41;5104080;28;20027;-71
2021/10/13 10:03:13;;;;;;;2.42;0.98;;;;;;;18.20;38.63;100760.03;5104554;28;20024;-71
2021/10/13 10:05:41;;;;;;;2.25;1.40;;;;;;;18.46;38.17;100755.63;5104304;28;20127;-70
2021/10/13 10:08:12;;;;;;;3.55;1.15;;;;;;;18.90;36.40;100751.38;5104389;28;20024;-71
2021/10/13 10:11:01;;;;;;;3.25;1.20;;;;;;;19.12;35.26;100748.81;5104218;28;20099;-71
2021/10/13 10:13:35;;;;;;;2.55;0.93;;;;;;;19.25;34.28;100753.63;5103398;28;20047;-70
2021/10/13 10:16:00;;;;;;;2.22;0.70;;;;;;;18.55;32.53;100760.53;5103529;28;20020;-70
2021/10/13 10:18:26;;;;;;;1.55;0.82;;;;;;;18.25;34.20;100757.22;5085535;28;20030;-70
2021/10/13 10:20:53;;;;;;;5.18;1.02;;;;;;;18.21;34.83;100757.34;5103769;28;20093;-70
2021/10/13 10:23:35;;;;;;;3.05;1.20;;;;;;;17.94;36.20;100751.22;5104067;28;20572;-70
2021/10/13 10:26:26;;;;;;;3.42;1.10;;;;;;;18.06;34.41;100755.22;5104049;28;20024;-70
2021/10/13 10:28:54;;;;;;;1.83;0.75;;;;;;;18.86;33.84;100758.56;5103730;28;20048;-71
2021/10/13 10:31:29;;;;;;;3.42;1.05;;;;;;;19.16;30.91;100757.44;5103798;28;20030;-70
2021/10/13 10:34:03;;;;;;;4.80;2.95;;;;;;;18.86;31.30;100768.22;5119026;28;20044;-71
2021/10/13 10:36:35;;;;;;;5.00;3.05;;;;;;;18.49;31.03;100752.00;5103696;28;20028;-70
2021/10/13 10:39:06;;;;;;;3.08;0.80;;;;;;;18.50;32.64;100757.22;5103549;28;20044;-70
2021/10/13 10:41:54;;;;;;;2.85;0.95;;;;;;;18.71;32.72;100759.97;5085593;28;20066;-70
2021/10/13 10:44:28;;;;;;;0.98;0.68;;;;;;;19.07;31.58;100754.22;5103713;28;20032;-70
2021/10/13 10:46:59;;;;;;;1.27;0.57;;;;;;;19.01;30.19;100767.63;5103686;28;20024;-70
2021/10/13 10:49:43;;;;;;;2.07;0.50;;;;;;;19.11;30.09;100760.25;5103036;28;20087;-70
2021/10/13 10:52:10;;;;;;;2.90;0.60;;;;;;;19.49;30.81;100754.41;5103408;28;20027;-70
2021/10/13 10:54:36;;;;;;;2.45;0.50;;;;;;;20.06;29.05;100760.91;5103562;28;20035;-71
2021/10/13 10:57:02;;;;;;;0.82;0.43;;;;;;;19.84;28.38;100767.03;5103622;28;20024;-70
2021/10/13 10:59:54;;;;;;;1.25;0.55;;;;;;;19.66;28.14;100759.00;5103329;28;20039;-71
2021/10/13 11:02:23;;;;;;;1.35;0.60;;;;;;;19.62;28.69;100756.53;5101213;28;20040;-69
2021/10/13 11:05:15;;;;;;;1.15;0.52;;;;;;;18.87;28.48;100765.53;5103247;28;20039;-69
2021/10/13 11:07:42;;;;;;;2.35;0.90;;;;;;;18.04;28.60;100762.28;5083277;28;20028;-70
2021/10/13 11:10:07;;;;;;;1.83;0.88;;;;;;;17.81;29.91;100766.56;5103192;28;20020;-69
2021/10/13 11:12:50;;;;;;;1.30;0.70;;;;;;;17.89;30.22;100759.25;5106170;28;20027;-70
2021/10/13 11:15:17;;;;;;;1.20;0.73;;;;;;;17.74;30.61;100763.28;5107591;28;20099;-71
2021/10/13 11:17:43;;;;;;;1.05;0.60;;;;;;;17.28;31.25;100755.97;5107238;28;20032;-71
2021/10/13 11:20:11;;;;;;;4.60;1.13;;;;;;;16.92;31.90;100756.13;5106469;28;20020;-70
2021/10/13 11:22:37;;;;;;;1.80;1.05;;;;;;;16.62;32.60;100753.50;5106816;28;20123;-71
2021/10/13 11:25:13;;;;;;;0.60;0.50;;;;;;;16.20;33.49;100755.47;5106515;28;20435;-70
2021/10/13 11:27:39;;;;;;;1.52;0.70;;;;;;;15.96;33.72;100752.56;5107139;28;20051;-71
2021/10/13 11:30:18;;;;;;;2.53;0.60;;;;;;;15.52;33.79;100751.03;5106680;28;20024;-71
2021/10/13 11:32:44;;;;;;;3.03;0.70;;;;;;;15.10;34.80;100746.72;5107162;28;20032;-71
2021/10/13 11:35:09;;;;;;;2.33;0.63;;;;;;;14.89;35.16;100741.06;5106961;28;20028;-70
2021/10/13 11:37:35;;;;;;;1.80;0.75;;;;;;;14.72;34.81;100757.06;5107221;28;20024;-71
2021/10/13 11:40:01;;;;;;;2.38;0.50;;;;;;;14.49;35.40;100740.06;5106907;28;20017;-71